sensor_id;sensor_type;location;lat;lon;timestamp;pressure;altitude;pressure_sealevel;temperature;humidity
11413;BME280;5762;43.256;26.960;2023-03-05T00:00:17;99265.31;;;4.47;100.00
11413;BME280;5762;43.256;26.960;2023-03-05T00:02:46;99260.48;;;4.44;100.00
11413;BME280;5762;43.256;26.960;2023-03-05T00:05:15;99261.25;;;4.62;100.00
11413;BME280;5762;43.256;26.960;2023-03-05T00:07:44;99266.87;;;4.74;100.00
11413;BME280;5762;43.256;26.960;2023-03-05T00:10:13;99264.94;;;4.92;100.00
11413;BME280;5762;43.256;26.960;2023-03-05T00:12:42;99263.82;;;5.08;100.00
11413;BME280;5762;43.256;26.960;2023-03-05T00:15:11;99265.07;;;5.28;100.00
11413;BME280;5762;43.256;26.960;2023-03-05T00:17:39;99262.08;;;5.40;100.00
11413;BME280;5762;43.256;26.960;2023-03-05T00:20:08;99260.88;;;5.02;100.00
11413;BME280;5762;43.256;26.960;2023-03-05T00:22:37;99254.26;;;4.82;100.00
11413;BME280;5762;43.256;26.960;2023-03-05T00:25:06;99251.04;;;4.82;100.00
11413;BME280;5762;43.256;26.960;2023-03-05T00:27:35;99244.09;;;4.63;100.00
11413;BME280;5762;43.256;26.960;2023-03-05T00:30:04;99238.73;;;4.63;100.00
11413;BME280;5762;43.256;26.960;2023-03-05T00:32:33;99239.73;;;4.93;100.00
11413;BME280;5762;43.256;26.960;2023-03-05T00:35:02;99245.87;;;5.01;100.00
11413;BME280;5762;43.256;26.960;2023-03-05T00:37:31;99237.58;;;4.92;100.00
11413;BME280;5762;43.256;26.960;2023-03-05T00:40:00;99239.52;;;4.82;100.00
11413;BME280;5762;43.256;26.960;2023-03-05T00:42:28;99236.06;;;4.61;100.00
11413;BME280;5762;43.256;26.960;2023-03-05T00:44:57;99233.66;;;4.52;100.00
11413;BME280;5762;43.256;26.960;2023-03-05T00:47:26;99238.73;;;4.63;100.00
11413;BME280;5762;43.256;26.960;2023-03-05T00:49:55;99241.93;;;4.81;100.00
11413;BME280;5762;43.256;26.960;2023-03-05T00:52:23;99244.53;;;4.98;100.00
11413;BME280;5762;43.256;26.960;2023-03-05T00:54:52;99242.80;;;5.30;100.00
11413;BME280;5762;43.256;26.960;2023-03-05T00:57:21;99238.23;;;5.31;100.00
11413;BME280;5762;43.256;26.960;2023-03-05T00:59:50;99234.71;;;5.38;100.00
11413;BME280;5762;43.256;26.960;2023-03-05T01:02:19;99229.90;;;5.35;100.00
11413;BME280;5762;43.256;26.960;2023-03-05T01:04:48;99232.30;;;5.39;100.00
11413;BME280;5762;43.256;26.960;2023-03-05T01:07:16;99231.91;;;5.56;100.00
11413;BME280;5762;43.256;26.960;2023-03-05T01:09:45;99230.93;;;5.44;100.00
11413;BME280;5762;43.256;26.960;2023-03-05T01:12:14;99228.66;;;5.17;100.00
11413;BME280;5762;43.256;26.960;2023-03-05T01:14:43;99223.11;;;4.88;100.00
11413;BME280;5762;43.256;26.960;2023-03-05T01:17:11;99226.67;;;4.66;100.00
11413;BME280;5762;43.256;26.960;2023-03-05T01:19:40;99226.16;;;4.56;100.00
11413;BME280;5762;43.256;26.960;2023-03-05T01:22:09;99234.73;;;4.53;100.00
11413;BME280;5762;43.256;26.960;2023-03-05T01:24:38;99236.06;;;4.63;100.00
11413;BME280;5762;43.256;26.960;2023-03-05T01:27:07;99229.64;;;4.57;100.00
11413;BME280;5762;43.256;26.960;2023-03-05T01:29:35;99241.42;;;4.58;100.00
11413;BME280;5762;43.256;26.960;2023-03-05T01:32:04;99238.71;;;4.81;100.00
11413;BME280;5762;43.256;26.960;2023-03-05T01:34:32;99247.02;;;4.80;100.00
11413;BME280;5762;43.256;26.960;2023-03-05T01:37:02;99250.24;;;4.79;100.00
11413;BME280;5762;43.256;26.960;2023-03-05T01:39:31;99259.35;;;4.81;100.00
11413;BME280;5762;43.256;26.960;2023-03-05T01:42:00;99253.19;;;4.78;100.00
11413;BME280;5762;43.256;26.960;2023-03-05T01:44:29;99257.48;;;4.79;100.00
11413;BME280;5762;43.256;26.960;2023-03-05T01:46:57;99258.28;;;4.82;100.00
11413;BME280;5762;43.256;26.960;2023-03-05T01:49:38;99261.50;;;4.76;100.00
11413;BME280;5762;43.256;26.960;2023-03-05T01:54:37;99257.48;;;4.79;100.00
11413;BME280;5762;43.256;26.960;2023-03-05T01:57:03;99257.48;;;4.79;100.00
11413;BME280;5762;43.256;26.960;2023-03-05T01:59:30;99254.53;;;4.75;100.00
11413;BME280;5762;43.256;26.960;2023-03-05T02:01:59;99265.52;;;4.76;100.00
11413;BME280;5762;43.256;26.960;2023-03-05T02:04:30;99262.58;;;4.75;100.00
11413;BME280;5762;43.256;26.960;2023-03-05T02:06:57;99262.31;;;4.71;100.00
11413;BME280;5762;43.256;26.960;2023-03-05T02:09:27;99268.48;;;4.69;100.00
11413;BME280;5762;43.256;26.960;2023-03-05T02:11:56;99273.58;;;4.66;100.00
11413;BME280;5762;43.256;26.960;2023-03-05T02:14:24;99270.64;;;4.57;100.00
11413;BME280;5762;43.256;26.960;2023-03-05T02:16:53;99266.88;;;4.63;100.00
11413;BME280;5762;43.256;26.960;2023-03-05T02:19:21;99269.33;;;4.47;100.00
11413;BME280;5762;43.256;26.960;2023-03-05T02:21:49;99263.97;;;4.29;100.00
11413;BME280;5762;43.256;26.960;2023-03-05T02:24:30;99263.98;;;4.07;100.00
11413;BME280;5762;43.256;26.960;2023-03-05T02:26:47;99263.70;;;4.03;100.00
11413;BME280;5762;43.256;26.960;2023-03-05T02:29:17;99264.24;;;4.02;100.00
11413;BME280;5762;43.256;26.960;2023-03-05T02:31:45;99274.69;;;4.09;100.00
11413;BME280;5762;43.256;26.960;2023-03-05T02:34:14;99281.11;;;4.03;100.00
11413;BME280;5762;43.256;26.960;2023-03-05T02:36:43;99290.50;;;4.16;100.00
11413;BME280;5762;43.256;26.960;2023-03-05T02:39:12;99286.45;;;4.18;100.00
11413;BME280;5762;43.256;26.960;2023-03-05T02:41:41;99290.75;;;4.24;100.00
11413;BME280;5762;43.256;26.960;2023-03-05T02:44:13;99284.86;;;4.30;100.00
11413;BME280;5762;43.256;26.960;2023-03-05T02:46:41;99286.73;;;4.34;100.00
11413;BME280;5762;43.256;26.960;2023-03-05T02:49:10;99285.94;;;4.42;100.00
11413;BME280;5762;43.256;26.960;2023-03-05T02:51:38;99278.70;;;4.45;100.00
11413;BME280;5762;43.256;26.960;2023-03-05T02:54:06;99286.18;;;4.58;100.00
11413;BME280;5762;43.256;26.960;2023-03-05T02:56:35;99284.03;;;4.62;100.00
11413;BME280;5762;43.256;26.960;2023-03-05T02:59:04;99280.54;;;4.75;100.00
11413;BME280;5762;43.256;26.960;2023-03-05T03:01:32;99278.87;;;4.94;100.00
11413;BME280;5762;43.256;26.960;2023-03-05T03:04:01;99277.47;;;5.19;100.00
11413;BME280;5762;43.256;26.960;2023-03-05T03:06:29;99273.14;;;5.21;100.00
11413;BME280;5762;43.256;26.960;2023-03-05T03:08:58;99275.09;;;5.08;100.00
11413;BME280;5762;43.256;26.960;2023-03-05T03:11:26;99275.98;;;4.73;100.00
11413;BME280;5762;43.256;26.960;2023-03-05T03:13:55;99270.36;;;4.61;100.00
11413;BME280;5762;43.256;26.960;2023-03-05T03:16:24;99271.73;;;4.33;100.00
11413;BME280;5762;43.256;26.960;2023-03-05T03:18:53;99268.25;;;4.28;100.00
11413;BME280;5762;43.256;26.960;2023-03-05T03:21:22;99261.83;;;4.29;100.00
11413;BME280;5762;43.256;26.960;2023-03-05T03:23:52;99264.23;;;4.28;100.00
11413;BME280;5762;43.256;26.960;2023-03-05T03:26:21;99266.11;;;4.37;100.00
11413;BME280;5762;43.256;26.960;2023-03-05T03:28:50;99256.97;;;4.56;100.00
11413;BME280;5762;43.256;26.960;2023-03-05T03:31:18;99255.88;;;4.70;100.00
11413;BME280;5762;43.256;26.960;2023-03-05T03:33:47;99248.59;;;4.88;100.00
11413;BME280;5762;43.256;26.960;2023-03-05T03:36:16;99249.62;;;5.00;100.00
11413;BME280;5762;43.256;26.960;2023-03-05T03:38:45;99256.84;;;5.10;100.00
11413;BME280;5762;43.256;26.960;2023-03-05T03:41:15;99248.81;;;5.02;100.00
11413;BME280;5762;43.256;26.960;2023-03-05T03:43:43;99248.55;;;5.01;100.00
11413;BME280;5762;43.256;26.960;2023-03-05T03:46:12;99245.89;;;4.93;100.00
11413;BME280;5762;43.256;26.960;2023-03-05T03:48:41;99246.44;;;4.88;100.00
11413;BME280;5762;43.256;26.960;2023-03-05T03:51:10;99249.11;;;4.93;100.00
11413;BME280;5762;43.256;26.960;2023-03-05T03:53:39;99250.16;;;5.04;100.00
11413;BME280;5762;43.256;26.960;2023-03-05T03:56:08;99250.97;;;5.00;100.00
11413;BME280;5762;43.256;26.960;2023-03-05T03:58:36;99253.39;;;4.99;100.00
11413;BME280;5762;43.256;26.960;2023-03-05T04:01:05;99249.36;;;5.01;100.00
11413;BME280;5762;43.256;26.960;2023-03-05T04:03:34;99246.70;;;4.94;100.00
11413;BME280;5762;43.256;26.960;2023-03-05T04:06:03;99252.87;;;4.92;100.00
11413;BME280;5762;43.256;26.960;2023-03-05T04:08:31;99247.03;;;4.77;100.00
11413;BME280;5762;43.256;26.960;2023-03-05T04:11:00;99246.23;;;4.69;100.00
11413;BME280;5762;43.256;26.960;2023-03-05T04:13:28;99250.81;;;4.53;100.00
11413;BME280;5762;43.256;26.960;2023-03-05T04:15:57;99255.91;;;4.52;100.00
11413;BME280;5762;43.256;26.960;2023-03-05T04:18:25;99251.91;;;4.29;100.00
11413;BME280;5762;43.256;26.960;2023-03-05T04:20:54;99252.18;;;4.20;100.00
11413;BME280;5762;43.256;26.960;2023-03-05T04:23:23;99243.08;;;4.16;100.00
11413;BME280;5762;43.256;26.960;2023-03-05T04:25:52;99238.81;;;4.08;100.00
11413;BME280;5762;43.256;26.960;2023-03-05T04:28:21;99242.55;;;4.01;100.00
11413;BME280;5762;43.256;26.960;2023-03-05T04:30:50;99236.39;;;4.01;100.00
11413;BME280;5762;43.256;26.960;2023-03-05T04:33:19;99244.70;;;4.04;100.00
11413;BME280;5762;43.256;26.960;2023-03-05T04:35:47;99247.63;;;3.93;100.00
11413;BME280;5762;43.256;26.960;2023-03-05T04:38:15;99251.64;;;3.78;100.00
11413;BME280;5762;43.256;26.960;2023-03-05T04:40:44;99246.75;;;3.52;100.00
11413;BME280;5762;43.256;26.960;2023-03-05T04:43:13;99251.04;;;3.53;100.00
11413;BME280;5762;43.256;26.960;2023-03-05T04:45:42;99248.63;;;3.44;100.00
11413;BME280;5762;43.256;26.960;2023-03-05T04:48:11;99254.72;;;3.29;100.00
11413;BME280;5762;43.256;26.960;2023-03-05T04:50:40;99265.26;;;3.66;100.00
11413;BME280;5762;43.256;26.960;2023-03-05T04:53:09;99255.91;;;3.74;100.00
11413;BME280;5762;43.256;26.960;2023-03-05T04:55:37;99274.89;;;3.67;100.00
11413;BME280;5762;43.256;26.960;2023-03-05T04:58:05;99272.77;;;3.72;100.00
11413;BME280;5762;43.256;26.960;2023-03-05T05:00:34;99273.31;;;3.76;100.00
11413;BME280;5762;43.256;26.960;2023-03-05T05:03:04;99268.20;;;3.64;100.00
11413;BME280;5762;43.256;26.960;2023-03-05T05:05:33;99275.97;;;3.68;100.00
11413;BME280;5762;43.256;26.960;2023-03-05T05:08:02;99269.84;;;3.76;100.00
11413;BME280;5762;43.256;26.960;2023-03-05T05:10:31;99273.04;;;3.85;100.00
11413;BME280;5762;43.256;26.960;2023-03-05T05:12:59;99275.72;;;3.88;100.00
11413;BME280;5762;43.256;26.960;2023-03-05T05:15:28;99278.93;;;3.85;100.00
11413;BME280;5762;43.256;26.960;2023-03-05T05:17:58;99271.98;;;3.89;100.00
11413;BME280;5762;43.256;26.960;2023-03-05T05:20:26;99284.58;;;3.96;100.00
11413;BME280;5762;43.256;26.960;2023-03-05T05:22:54;99275.19;;;3.88;100.00
11413;BME280;5762;43.256;26.960;2023-03-05T05:25:23;99280.03;;;3.96;100.00
11413;BME280;5762;43.256;26.960;2023-03-05T05:27:52;99282.42;;;3.90;100.00
11413;BME280;5762;43.256;26.960;2023-03-05T05:30:21;99284.30;;;3.92;100.00
11413;BME280;5762;43.256;26.960;2023-03-05T05:32:49;99275.22;;;4.03;100.00
11413;BME280;5762;43.256;26.960;2023-03-05T05:35:18;99282.20;;;4.12;100.00
11413;BME280;5762;43.256;26.960;2023-03-05T05:37:46;99287.00;;;4.20;100.00
11413;BME280;5762;43.256;26.960;2023-03-05T05:40:15;99288.88;;;4.25;100.00
11413;BME280;5762;43.256;26.960;2023-03-05T05:42:44;99296.64;;;4.24;100.00
11413;BME280;5762;43.256;26.960;2023-03-05T05:45:13;99290.74;;;4.19;100.00
11413;BME280;5762;43.256;26.960;2023-03-05T05:47:45;99296.66;;;4.14;100.00
11413;BME280;5762;43.256;26.960;2023-03-05T05:50:13;99295.84;;;4.23;100.00
11413;BME280;5762;43.256;26.960;2023-03-05T05:52:42;99298.23;;;4.17;100.00
11413;BME280;5762;43.256;26.960;2023-03-05T05:55:11;99300.94;;;4.12;100.00
11413;BME280;5762;43.256;26.960;2023-03-05T05:57:40;99286.99;;;4.18;100.00
11413;BME280;5762;43.256;26.960;2023-03-05T06:00:10;99294.77;;;4.04;100.00
11413;BME280;5762;43.256;26.960;2023-03-05T06:02:39;99294.78;;;4.09;100.00
11413;BME280;5762;43.256;26.960;2023-03-05T06:05:10;99302.00;;;4.29;100.00
11413;BME280;5762;43.256;26.960;2023-03-05T06:07:37;99298.52;;;4.28;100.00
11413;BME280;5762;43.256;26.960;2023-03-05T06:10:07;99300.41;;;4.43;100.00
11413;BME280;5762;43.256;26.960;2023-03-05T06:12:36;99295.31;;;4.44;100.00
11413;BME280;5762;43.256;26.960;2023-03-05T06:15:05;99293.41;;;4.60;100.00
11413;BME280;5762;43.256;26.960;2023-03-05T06:17:33;99293.67;;;4.66;100.00
11413;BME280;5762;43.256;26.960;2023-03-05T06:20:02;99305.73;;;4.79;100.00
11413;BME280;5762;43.256;26.960;2023-03-05T06:22:34;99303.28;;;4.90;100.00
11413;BME280;5762;43.256;26.960;2023-03-05T06:25:01;99305.30;;;5.31;100.00
11413;BME280;5762;43.256;26.960;2023-03-05T06:27:29;99301.49;;;5.47;100.00
11413;BME280;5762;43.256;26.960;2023-03-05T06:29:58;99298.75;;;5.55;100.00
11413;BME280;5762;43.256;26.960;2023-03-05T06:32:27;99301.14;;;5.61;100.00
11413;BME280;5762;43.256;26.960;2023-03-05T06:34:56;99297.34;;;5.70;100.00
11413;BME280;5762;43.256;26.960;2023-03-05T06:37:25;99295.91;;;5.88;100.00
11413;BME280;5762;43.256;26.960;2023-03-05T06:39:53;99292.94;;;5.92;100.00
11413;BME280;5762;43.256;26.960;2023-03-05T06:42:22;99289.88;;;6.09;100.00
11413;BME280;5762;43.256;26.960;2023-03-05T06:44:51;99282.33;;;6.13;100.00
11413;BME280;5762;43.256;26.960;2023-03-05T06:47:20;99275.22;;;6.27;100.00
11413;BME280;5762;43.256;26.960;2023-03-05T06:49:49;99274.41;;;6.27;100.00
11413;BME280;5762;43.256;26.960;2023-03-05T06:52:18;99271.41;;;6.62;100.00
11413;BME280;5762;43.256;26.960;2023-03-05T06:54:46;99272.52;;;6.88;100.00
11413;BME280;5762;43.256;26.960;2023-03-05T06:57:14;99263.39;;;7.10;100.00
11413;BME280;5762;43.256;26.960;2023-03-05T06:59:43;99261.53;;;7.29;100.00
11413;BME280;5762;43.256;26.960;2023-03-05T07:02:12;99259.72;;;7.46;100.00
11413;BME280;5762;43.256;26.960;2023-03-05T07:04:41;99256.70;;;7.69;100.00
11413;BME280;5762;43.256;26.960;2023-03-05T07:07:10;99252.78;;;7.80;100.00
11413;BME280;5762;43.256;26.960;2023-03-05T07:09:39;99243.61;;;7.97;100.00
11413;BME280;5762;43.256;26.960;2023-03-05T07:12:12;99240.61;;;8.18;100.00
11413;BME280;5762;43.256;26.960;2023-03-05T07:14:38;99222.63;;;8.13;100.00
11413;BME280;5762;43.256;26.960;2023-03-05T07:17:06;99211.17;;;8.21;100.00
11413;BME280;5762;43.256;26.960;2023-03-05T07:19:35;99202.80;;;8.23;100.00
11413;BME280;5762;43.256;26.960;2023-03-05T07:22:05;99190.16;;;8.21;100.00
11413;BME280;5762;43.256;26.960;2023-03-05T07:24:33;99193.83;;;8.27;100.00
11413;BME280;5762;43.256;26.960;2023-03-05T07:27:02;99187.76;;;8.35;100.00
11413;BME280;5762;43.256;26.960;2023-03-05T07:29:31;99188.25;;;8.54;100.00
11413;BME280;5762;43.256;26.960;2023-03-05T07:31:59;99180.41;;;8.68;100.00
11413;BME280;5762;43.256;26.960;2023-03-05T07:34:28;99181.50;;;8.67;100.00
11413;BME280;5762;43.256;26.960;2023-03-05T07:36:57;99172.63;;;8.81;100.00
11413;BME280;5762;43.256;26.960;2023-03-05T07:39:25;99170.67;;;8.84;100.00
11413;BME280;5762;43.256;26.960;2023-03-05T07:41:54;99173.17;;;8.94;100.00
11413;BME280;5762;43.256;26.960;2023-03-05T07:44:23;99172.64;;;9.05;100.00
11413;BME280;5762;43.256;26.960;2023-03-05T07:46:51;99168.09;;;9.17;100.00
11413;BME280;5762;43.256;26.960;2023-03-05T07:49:20;99159.06;;;9.35;100.00
11413;BME280;5762;43.256;26.960;2023-03-05T07:51:49;99163.52;;;9.40;100.00
11413;BME280;5762;43.256;26.960;2023-03-05T07:54:18;99152.72;;;9.40;100.00
11413;BME280;5762;43.256;26.960;2023-03-05T07:56:47;99144.98;;;9.36;100.00
11413;BME280;5762;43.256;26.960;2023-03-05T07:59:16;99141.25;;;9.46;100.00
11413;BME280;5762;43.256;26.960;2023-03-05T08:01:45;99136.59;;;9.49;100.00
11413;BME280;5762;43.256;26.960;2023-03-05T08:04:14;99137.22;;;9.57;100.00
11413;BME280;5762;43.256;26.960;2023-03-05T08:06:42;99147.19;;;9.70;100.00
11413;BME280;5762;43.256;26.960;2023-03-05T08:09:12;99138.88;;;9.78;100.00
11413;BME280;5762;43.256;26.960;2023-03-05T08:11:41;99139.92;;;9.79;100.00
11413;BME280;5762;43.256;26.960;2023-03-05T08:14:10;99134.21;;;9.92;100.00
11413;BME280;5762;43.256;26.960;2023-03-05T08:16:39;99129.30;;;9.94;100.00
11413;BME280;5762;43.256;26.960;2023-03-05T08:19:08;99129.11;;;10.01;100.00
11413;BME280;5762;43.256;26.960;2023-03-05T08:21:36;99133.41;;;10.02;100.00
11413;BME280;5762;43.256;26.960;2023-03-05T08:24:06;99127.84;;;10.07;100.00
11413;BME280;5762;43.256;26.960;2023-03-05T08:26:35;99131.30;;;10.22;100.00
11413;BME280;5762;43.256;26.960;2023-03-05T08:29:04;99132.34;;;10.23;100.00
11413;BME280;5762;43.256;26.960;2023-03-05T08:31:34;99125.27;;;10.36;100.00
11413;BME280;5762;43.256;26.960;2023-03-05T08:34:03;99126.80;;;10.48;100.00
11413;BME280;5762;43.256;26.960;2023-03-05T08:36:32;99128.38;;;10.60;100.00
11413;BME280;5762;43.256;26.960;2023-03-05T08:39:01;99124.52;;;10.81;100.00
11413;BME280;5762;43.256;26.960;2023-03-05T08:41:29;99123.75;;;10.89;100.00
11413;BME280;5762;43.256;26.960;2023-03-05T08:43:58;99121.41;;;11.05;100.00
11413;BME280;5762;43.256;26.960;2023-03-05T08:46:26;99115.42;;;11.14;100.00
11413;BME280;5762;43.256;26.960;2023-03-05T08:48:55;99114.23;;;11.18;100.00
11413;BME280;5762;43.256;26.960;2023-03-05T08:51:24;99106.03;;;11.20;100.00
11413;BME280;5762;43.256;26.960;2023-03-05T08:53:54;99099.52;;;11.30;100.00
11413;BME280;5762;43.256;26.960;2023-03-05T08:56:23;99097.52;;;11.24;100.00
11413;BME280;5762;43.256;26.960;2023-03-05T08:58:51;99095.76;;;11.20;100.00
11413;BME280;5762;43.256;26.960;2023-03-05T09:01:20;99099.35;;;11.26;100.00
11413;BME280;5762;43.256;26.960;2023-03-05T09:03:49;99088.51;;;11.18;100.00
11413;BME280;5762;43.256;26.960;2023-03-05T09:06:18;99096.58;;;11.37;100.00
11413;BME280;5762;43.256;26.960;2023-03-05T09:08:47;99093.54;;;11.30;100.00
11413;BME280;5762;43.256;26.960;2023-03-05T09:11:16;99089.95;;;11.24;100.00
11413;BME280;5762;43.256;26.960;2023-03-05T09:13:44;99084.36;;;11.12;100.00
11413;BME280;5762;43.256;26.960;2023-03-05T09:16:14;99081.98;;;11.27;100.00
11413;BME280;5762;43.256;26.960;2023-03-05T09:18:43;99085.17;;;11.29;100.00
11413;BME280;5762;43.256;26.960;2023-03-05T09:21:13;99075.98;;;11.45;100.00
11413;BME280;5762;43.256;26.960;2023-03-05T09:23:43;99079.17;;;11.47;100.00
11413;BME280;5762;43.256;26.960;2023-03-05T09:26:13;99076.18;;;11.40;100.00
11413;BME280;5762;43.256;26.960;2023-03-05T09:28:42;99068.65;;;11.63;100.00
11413;BME280;5762;43.256;26.960;2023-03-05T09:31:11;99063.92;;;11.83;100.00
11413;BME280;5762;43.256;26.960;2023-03-05T09:33:39;99060.56;;;11.86;100.00
11413;BME280;5762;43.256;26.960;2023-03-05T09:36:18;99067.04;;;11.79;100.00
11413;BME280;5762;43.256;26.960;2023-03-05T09:38:43;99057.06;;;11.86;100.00
11413;BME280;5762;43.256;26.960;2023-03-05T09:41:16;99061.36;;;11.87;100.00
11413;BME280;5762;43.256;26.960;2023-03-05T09:43:54;99054.30;;;11.71;100.00
11413;BME280;5762;43.256;26.960;2023-03-05T09:46:26;99063.70;;;11.65;100.00
11413;BME280;5762;43.256;26.960;2023-03-05T09:48:53;99054.61;;;11.69;100.00
11413;BME280;5762;43.256;26.960;2023-03-05T09:51:24;99056.13;;;11.64;100.00
11413;BME280;5762;43.256;26.960;2023-03-05T09:56:25;99046.94;;;11.80;100.00
11413;BME280;5762;43.256;26.960;2023-03-05T09:58:55;99045.76;;;11.75;100.00
11413;BME280;5762;43.256;26.960;2023-03-05T10:01:28;99051.83;;;11.63;100.00
11413;BME280;5762;43.256;26.960;2023-03-05T10:03:58;99039.24;;;11.59;100.00
11413;BME280;5762;43.256;26.960;2023-03-05T10:06:38;99057.48;;;11.64;100.00
11413;BME280;5762;43.256;26.960;2023-03-05T10:11:33;99044.81;;;12.03;100.00
11413;BME280;5762;43.256;26.960;2023-03-05T10:14:01;99042.49;;;12.07;100.00
11413;BME280;5762;43.256;26.960;2023-03-05T10:19:23;99052.24;;;12.00;100.00
11413;BME280;5762;43.256;26.960;2023-03-05T10:34:39;99012.56;;;12.25;100.00
11413;BME280;5762;43.256;26.960;2023-03-05T10:40:00;99010.45;;;12.01;100.00
11413;BME280;5762;43.256;26.960;2023-03-05T10:42:36;99015.38;;;12.07;100.00
11413;BME280;5762;43.256;26.960;2023-03-05T10:45:12;98993.20;;;12.20;100.00
11413;BME280;5762;43.256;26.960;2023-03-05T10:47:43;98999.83;;;12.17;100.00
11413;BME280;5762;43.256;26.960;2023-03-05T10:50:21;98990.34;;;12.17;100.00
11413;BME280;5762;43.256;26.960;2023-03-05T10:53:05;98982.18;;;11.87;100.00
11413;BME280;5762;43.256;26.960;2023-03-05T10:55:31;98992.11;;;11.98;100.00
11413;BME280;5762;43.256;26.960;2023-03-05T10:58:00;98974.92;;;12.08;100.00
11413;BME280;5762;43.256;26.960;2023-03-05T11:00:29;98968.23;;;12.06;100.00
11413;BME280;5762;43.256;26.960;2023-03-05T11:03:04;98978.73;;;11.93;100.00
11413;BME280;5762;43.256;26.960;2023-03-05T11:08:31;98957.19;;;12.26;100.00
11413;BME280;5762;43.256;26.960;2023-03-05T11:10:44;98961.16;;;12.43;100.00
11413;BME280;5762;43.256;26.960;2023-03-05T11:15:57;98953.39;;;12.33;100.00
11413;BME280;5762;43.256;26.960;2023-03-05T11:18:18;98952.09;;;12.39;100.00
11413;BME280;5762;43.256;26.960;2023-03-05T11:20:47;98945.34;;;12.45;100.00
11413;BME280;5762;43.256;26.960;2023-03-05T11:28:25;98931.80;;;12.99;100.00
11413;BME280;5762;43.256;26.960;2023-03-05T11:31:11;98935.02;;;12.80;100.00
11413;BME280;5762;43.256;26.960;2023-03-05T11:33:32;98922.27;;;12.66;100.00
11413;BME280;5762;43.256;26.960;2023-03-05T11:36:20;98908.42;;;12.59;100.00
11413;BME280;5762;43.256;26.960;2023-03-05T11:38:51;98914.56;;;12.41;100.00
11413;BME280;5762;43.256;26.960;2023-03-05T11:41:28;98918.41;;;12.40;100.00
11413;BME280;5762;43.256;26.960;2023-03-05T11:43:57;98923.93;;;12.23;100.00
11413;BME280;5762;43.256;26.960;2023-03-05T11:46:26;98909.24;;;12.24;100.00
11413;BME280;5762;43.256;26.960;2023-03-05T11:48:55;98913.55;;;12.25;100.00
11413;BME280;5762;43.256;26.960;2023-03-05T11:51:26;98919.53;;;12.24;100.00
11413;BME280;5762;43.256;26.960;2023-03-05T11:53:55;98905.45;;;12.16;100.00
11413;BME280;5762;43.256;26.960;2023-03-05T11:56:30;98916.87;;;12.16;100.00
11413;BME280;5762;43.256;26.960;2023-03-05T12:01:38;98899.33;;;12.28;100.00
11413;BME280;5762;43.256;26.960;2023-03-05T12:04:05;98897.64;;;12.29;100.00
11413;BME280;5762;43.256;26.960;2023-03-05T12:06:53;98900.59;;;12.30;100.00
11413;BME280;5762;43.256;26.960;2023-03-05T12:11:55;98896.56;;;12.22;100.00
11413;BME280;5762;43.256;26.960;2023-03-05T12:17:00;98903.25;;;12.24;100.00
11413;BME280;5762;43.256;26.960;2023-03-05T12:19:36;98901.38;;;12.31;100.00
11413;BME280;5762;43.256;26.960;2023-03-05T12:22:02;98904.09;;;12.31;100.00
11413;BME280;5762;43.256;26.960;2023-03-05T12:24:33;98902.27;;;12.29;100.00
11413;BME280;5762;43.256;26.960;2023-03-05T12:32:02;98866.86;;;12.04;100.00
11413;BME280;5762;43.256;26.960;2023-03-05T12:37:13;98887.86;;;12.01;100.00
11413;BME280;5762;43.256;26.960;2023-03-05T12:47:38;98871.96;;;12.27;100.00
11413;BME280;5762;43.256;26.960;2023-03-05T12:52:37;98875.14;;;12.29;100.00
11413;BME280;5762;43.256;26.960;2023-03-05T12:57:43;98865.76;;;12.53;100.00
11413;BME280;5762;43.256;26.960;2023-03-05T13:00:21;98857.55;;;12.62;100.00
11413;BME280;5762;43.256;26.960;2023-03-05T13:02:47;98860.99;;;12.50;100.00
11413;BME280;5762;43.256;26.960;2023-03-05T13:05:25;98866.32;;;12.47;100.00
11413;BME280;5762;43.256;26.960;2023-03-05T13:07:49;98860.76;;;12.43;100.00
11413;BME280;5762;43.256;26.960;2023-03-05T13:10:25;98855.80;;;12.45;100.00
11413;BME280;5762;43.256;26.960;2023-03-05T13:12:54;98849.02;;;12.51;100.00
11413;BME280;5762;43.256;26.960;2023-03-05T13:15:24;98848.68;;;12.47;100.00
11413;BME280;5762;43.256;26.960;2023-03-05T13:17:56;98845.08;;;12.55;100.00
11413;BME280;5762;43.256;26.960;2023-03-05T13:23:07;98842.13;;;12.27;100.00
11413;BME280;5762;43.256;26.960;2023-03-05T13:25:30;98834.21;;;12.28;100.00
11413;BME280;5762;43.256;26.960;2023-03-05T13:28:14;98836.56;;;12.23;100.00
11413;BME280;5762;43.256;26.960;2023-03-05T13:30:38;98830.61;;;12.30;100.00
11413;BME280;5762;43.256;26.960;2023-03-05T13:33:12;98831.34;;;12.39;100.00
11413;BME280;5762;43.256;26.960;2023-03-05T13:35:36;98830.30;;;12.64;100.00
11413;BME280;5762;43.256;26.960;2023-03-05T13:38:13;98826.90;;;12.61;100.00
11413;BME280;5762;43.256;26.960;2023-03-05T13:40:35;98814.81;;;12.65;100.00
11413;BME280;5762;43.256;26.960;2023-03-05T13:43:09;98818.93;;;12.44;100.00
11413;BME280;5762;43.256;26.960;2023-03-05T13:45:37;98818.03;;;12.25;100.00
11413;BME280;5762;43.256;26.960;2023-03-05T13:48:06;98810.75;;;12.17;100.00
11413;BME280;5762;43.256;26.960;2023-03-05T13:50:36;98811.13;;;12.22;100.00
11413;BME280;5762;43.256;26.960;2023-03-05T13:53:14;98819.72;;;12.24;100.00
11413;BME280;5762;43.256;26.960;2023-03-05T13:55:45;98815.12;;;12.30;100.00
11413;BME280;5762;43.256;26.960;2023-03-05T14:06:37;98808.87;;;12.78;100.00
11413;BME280;5762;43.256;26.960;2023-03-05T14:09:06;98793.14;;;12.77;100.00
11413;BME280;5762;43.256;26.960;2023-03-05T14:11:35;98802.08;;;12.78;100.00
11413;BME280;5762;43.256;26.960;2023-03-05T14:14:13;98786.01;;;12.85;100.00
11413;BME280;5762;43.256;26.960;2023-03-05T14:16:33;98790.20;;;12.76;100.00
11413;BME280;5762;43.256;26.960;2023-03-05T14:19:03;98785.77;;;12.71;100.00
11413;BME280;5762;43.256;26.960;2023-03-05T14:21:45;98790.98;;;12.77;100.00
11413;BME280;5762;43.256;26.960;2023-03-05T14:24:20;98795.30;;;12.78;100.00